Time;durP1;ratioP1;P1;durP2;ratioP2;P2;SDS_P1;SDS_P2;PMS_P1;PMS_P2;Temp;Humidity;BMP_temperature;BMP_pressure;BME280_temperature;BME280_humidity;BME280_pressure;Samples;Min_cycle;Max_cycle;Signal;HPM_P1;HPM_P2
2023/07/25 00:00:06;;;;;;;7.60;3.63;;;;;;;28.74;47.34;98526.47;4996802;28;20182;-84
2023/07/25 00:02:31;;;;;;;7.32;3.13;;;;;;;28.77;47.74;98517.97;4996915;28;20677;-85
2023/07/25 00:04:56;;;;;;;9.38;3.92;;;;;;;28.76;47.76;98521.69;4996834;28;20259;-84
2023/07/25 00:07:22;;;;;;;12.43;3.90;;;;;;;28.79;47.61;98522.09;4996713;28;20167;-84
2023/07/25 00:09:47;;;;;;;8.93;3.75;;;;;;;28.78;47.94;98522.28;4996775;28;20190;-84
2023/07/25 00:12:13;;;;;;;9.00;3.85;;;;;;;28.78;47.74;98523.13;4995563;28;20176;-84
2023/07/25 00:14:38;;;;;;;6.85;3.65;;;;;;;28.75;47.98;98522.75;4996915;28;20196;-84
2023/07/25 00:17:04;;;;;;;6.63;3.20;;;;;;;28.72;47.19;98523.97;4996589;28;20353;-84
2023/07/25 00:19:29;;;;;;;10.60;3.78;;;;;;;28.71;47.86;98518.78;4995690;28;20191;-84
2023/07/25 00:21:54;;;;;;;7.00;3.60;;;;;;;28.74;47.84;98530.00;4979413;28;20242;-84
2023/07/25 00:24:20;;;;;;;7.65;3.58;;;;;;;28.76;47.87;98522.53;4979272;28;20176;-84
2023/07/25 00:26:45;;;;;;;7.70;3.70;;;;;;;28.75;47.57;98517.34;4996522;28;20182;-84
2023/07/25 00:29:11;;;;;;;11.18;3.72;;;;;;;28.71;47.75;98521.50;4995114;28;20218;-84
2023/07/25 00:31:36;;;;;;;8.55;4.00;;;;;;;28.61;48.17;98516.50;4996464;28;20272;-84
2023/07/25 00:34:03;;;;;;;8.95;4.25;;;;;;;28.54;48.13;98521.91;4995324;28;20206;-84
2023/07/25 00:36:29;;;;;;;13.07;4.32;;;;;;;28.54;48.05;98521.06;4978550;28;20287;-84
2023/07/25 00:38:54;;;;;;;8.57;4.32;;;;;;;28.51;47.75;98511.53;4994333;28;20669;-84
2023/07/25 00:41:20;;;;;;;9.65;4.55;;;;;;;28.48;47.96;98524.63;4979117;28;20705;-84
2023/07/25 00:43:45;;;;;;;10.32;3.85;;;;;;;28.48;47.88;98536.25;4996442;28;20164;-84
2023/07/25 00:46:11;;;;;;;9.90;4.70;;;;;;;28.37;48.47;98536.88;4995051;28;20186;-84
2023/07/25 00:48:36;;;;;;;8.63;3.70;;;;;;;28.24;48.79;98536.88;4996101;28;20172;-84
2023/07/25 00:51:03;;;;;;;10.02;4.25;;;;;;;28.15;48.76;98534.56;4996094;28;20258;-84
2023/07/25 00:53:29;;;;;;;9.20;3.60;;;;;;;28.03;49.73;98534.38;4978739;28;20213;-84
2023/07/25 00:55:55;;;;;;;11.85;3.83;;;;;;;27.94;50.02;98540.94;4995911;28;20176;-84
2023/07/25 00:58:21;;;;;;;8.88;4.47;;;;;;;27.78;51.03;98528.69;4995924;28;20233;-84
2023/07/25 01:00:46;;;;;;;7.32;3.50;;;;;;;27.64;51.63;98540.50;4995754;28;20219;-84
2023/07/25 01:03:12;;;;;;;9.15;4.22;;;;;;;27.66;51.14;98538.41;4995791;28;20179;-84
2023/07/25 01:05:49;;;;;;;10.15;4.03;;;;;;;27.57;52.35;98541.50;4978640;28;20179;-84
2023/07/25 01:08:14;;;;;;;9.45;4.38;;;;;;;27.51;51.98;98535.06;4994766;28;20625;-84
2023/07/25 01:10:39;;;;;;;6.13;3.38;;;;;;;27.49;51.96;98541.69;4979111;28;20180;-84
2023/07/25 01:13:05;;;;;;;10.52;4.05;;;;;;;27.47;51.45;98543.72;4994519;28;20211;-84
2023/07/25 01:15:32;;;;;;;8.50;3.50;;;;;;;27.47;51.63;98543.72;4996139;28;20179;-84
2023/07/25 01:17:59;;;;;;;6.90;3.15;;;;;;;27.41;52.29;98540.81;4995520;28;20625;-84
2023/07/25 01:20:25;;;;;;;11.73;3.85;;;;;;;27.33;52.06;98554.41;4978349;28;20191;-84
2023/07/25 01:22:53;;;;;;;8.50;4.20;;;;;;;27.25;52.22;98541.13;4995536;28;20202;-84
2023/07/25 01:25:18;;;;;;;7.72;3.97;;;;;;;27.20;52.91;98543.59;4978236;28;20203;-84
2023/07/25 01:27:43;;;;;;;8.18;3.90;;;;;;;27.23;52.55;98547.75;4995313;28;20615;-84
2023/07/25 01:30:09;;;;;;;7.18;3.47;;;;;;;27.26;53.02;98537.41;4995297;28;20168;-84
2023/07/25 01:32:34;;;;;;;7.07;4.05;;;;;;;27.38;52.56;98537.69;4995531;28;20191;-84
2023/07/25 01:35:00;;;;;;;7.10;3.85;;;;;;;27.51;51.91;98531.53;4995431;28;20207;-84
2023/07/25 01:37:25;;;;;;;8.48;3.65;;;;;;;27.60;51.60;98539.22;4994941;28;20742;-84
2023/07/25 01:39:51;;;;;;;7.88;4.07;;;;;;;27.53;51.91;98554.53;4995658;28;20199;-84
2023/07/25 01:42:16;;;;;;;9.57;4.22;;;;;;;27.49;51.81;98552.47;4995265;28;20200;-84
2023/07/25 01:44:41;;;;;;;9.05;3.97;;;;;;;27.38;52.35;98546.56;4994883;28;20633;-84
2023/07/25 01:47:07;;;;;;;10.35;3.25;;;;;;;27.25;52.89;98554.59;4995161;28;20179;-83
2023/07/25 01:49:32;;;;;;;8.82;4.07;;;;;;;27.23;52.77;98556.66;4995059;28;20171;-84
2023/07/25 01:51:58;;;;;;;7.00;3.30;;;;;;;27.22;52.54;98552.31;4995157;28;20179;-84
2023/07/25 01:54:23;;;;;;;9.88;3.90;;;;;;;27.16;53.37;98549.59;4994791;28;20261;-84
2023/07/25 01:56:49;;;;;;;7.45;3.25;;;;;;;27.04;54.00;98551.19;4977503;28;20184;-83
2023/07/25 01:59:14;;;;;;;9.20;3.75;;;;;;;26.99;54.03;98550.97;4994967;28;20180;-83
2023/07/25 02:01:39;;;;;;;8.55;4.22;;;;;;;26.99;54.24;98553.66;4995016;28;20194;-84
2023/07/25 02:04:05;;;;;;;9.80;3.42;;;;;;;26.96;54.24;98565.63;4994569;28;20175;-84
2023/07/25 02:06:31;;;;;;;8.70;4.07;;;;;;;27.01;53.85;98562.34;4977363;28;20261;-84
2023/07/25 02:08:56;;;;;;;7.97;3.90;;;;;;;27.06;53.46;98573.34;4993520;28;20184;-84
2023/07/25 02:11:21;;;;;;;7.50;3.25;;;;;;;26.94;54.13;98569.56;4994572;28;20172;-84
2023/07/25 02:13:47;;;;;;;10.15;3.47;;;;;;;26.86;54.30;98557.06;4994416;28;20200;-84
2023/07/25 02:16:12;;;;;;;8.23;3.65;;;;;;;26.81;54.23;98554.97;4994300;28;20198;-83
2023/07/25 02:18:37;;;;;;;8.60;3.53;;;;;;;26.78;54.19;98558.06;4993492;28;20179;-83
2023/07/25 02:21:03;;;;;;;8.95;3.53;;;;;;;26.79;53.82;98557.03;4993432;28;20521;-83
2023/07/25 02:23:28;;;;;;;6.75;3.60;;;;;;;26.80;53.77;98556.03;4977083;28;20195;-83
2023/07/25 02:25:54;;;;;;;6.45;3.67;;;;;;;26.76;54.25;98562.78;4994318;28;20247;-83
2023/07/25 02:28:19;;;;;;;8.43;4.00;;;;;;;26.73;54.15;98554.28;4994110;28;20246;-83
2023/07/25 02:30:46;;;;;;;8.48;4.03;;;;;;;26.68;54.46;98562.09;4994290;28;20180;-83
2023/07/25 02:33:11;;;;;;;8.77;4.03;;;;;;;26.63;54.48;98567.22;4994411;28;20191;-83
2023/07/25 02:35:37;;;;;;;8.43;3.92;;;;;;;26.61;54.57;98569.28;4994422;28;20182;-83
2023/07/25 02:38:02;;;;;;;9.05;3.95;;;;;;;26.60;54.38;98575.69;4993161;28;20179;-83
2023/07/25 02:40:28;;;;;;;8.57;4.30;;;;;;;26.53;54.46;98572.97;4994060;28;20176;-83
2023/07/25 02:42:53;;;;;;;11.27;3.97;;;;;;;26.52;54.60;98581.25;4994063;28;20176;-84
2023/07/25 02:45:19;;;;;;;7.82;4.03;;;;;;;26.55;54.54;98570.06;4976572;28;20211;-84
2023/07/25 02:47:44;;;;;;;9.18;4.00;;;;;;;26.43;55.35;98575.16;4994025;28;20179;-83
2023/07/25 02:50:10;;;;;;;11.48;4.20;;;;;;;26.47;55.50;98578.28;4992825;28;20315;-83
2023/07/25 02:52:35;;;;;;;10.80;4.77;;;;;;;26.49;54.67;98573.56;4976823;28;20171;-84
2023/07/25 02:55:00;;;;;;;7.80;4.10;;;;;;;26.36;55.13;98581.50;4993801;28;20689;-83
2023/07/25 02:57:26;;;;;;;8.70;4.10;;;;;;;26.33;55.31;98576.53;4976802;28;20179;-83
2023/07/25 02:59:51;;;;;;;9.77;4.55;;;;;;;26.23;55.19;98574.97;4993399;28;20188;-83
2023/07/25 03:02:17;;;;;;;7.38;4.15;;;;;;;26.23;55.21;98580.34;4993732;28;20262;-83
2023/07/25 03:04:42;;;;;;;13.00;4.77;;;;;;;26.23;55.31;98585.72;4994367;28;20172;-83
2023/07/25 03:07:07;;;;;;;8.75;4.53;;;;;;;26.17;55.90;98593.75;4992826;28;20183;-83
2023/07/25 03:09:33;;;;;;;12.53;5.23;;;;;;;26.13;55.69;98579.84;4976657;28;20188;-83
2023/07/25 03:11:58;;;;;;;10.70;3.50;;;;;;;25.98;56.37;98581.75;4992852;28;20262;-83
2023/07/25 03:14:24;;;;;;;10.97;5.03;;;;;;;25.97;56.21;98585.44;4993711;28;20192;-83
2023/07/25 03:16:49;;;;;;;10.77;4.67;;;;;;;25.91;56.94;98582.72;4992815;28;20176;-83
2023/07/25 03:19:15;;;;;;;10.90;4.63;;;;;;;25.86;57.29;98585.97;4993956;28;20661;-83
2023/07/25 03:21:40;;;;;;;8.63;4.57;;;;;;;25.86;57.31;98588.66;4993697;28;20186;-83
2023/07/25 03:24:05;;;;;;;13.60;4.80;;;;;;;25.82;57.14;98582.00;4993518;28;20210;-83
2023/07/25 03:26:31;;;;;;;10.10;4.23;;;;;;;25.86;57.09;98585.97;4992628;28;20207;-83
2023/07/25 03:28:56;;;;;;;10.00;4.57;;;;;;;25.90;56.86;98587.25;4976360;28;20531;-83
2023/07/25 03:31:22;;;;;;;8.33;4.40;;;;;;;25.91;57.16;98588.91;4993631;28;20661;-83
2023/07/25 03:33:47;;;;;;;10.10;4.23;;;;;;;25.90;57.20;98595.31;4993493;28;20654;-83
2023/07/25 03:36:12;;;;;;;8.47;4.80;;;;;;;25.94;56.94;98596.56;4993422;28;20206;-83
2023/07/25 03:38:38;;;;;;;8.47;5.10;;;;;;;25.95;57.41;98600.94;4992568;28;20180;-83
2023/07/25 03:41:03;;;;;;;9.07;4.10;;;;;;;25.94;57.60;98599.25;4992382;28;20709;-83
2023/07/25 03:43:29;;;;;;;8.03;4.37;;;;;;;25.93;57.79;98605.66;4976681;28;20172;-83
2023/07/25 03:45:54;;;;;;;11.27;4.40;;;;;;;25.89;57.73;98603.56;4993330;28;20179;-83
2023/07/25 03:48:19;;;;;;;8.35;4.60;;;;;;;25.87;57.88;98606.41;4993738;28;20502;-83
2023/07/25 03:50:45;;;;;;;9.33;4.83;;;;;;;25.93;57.67;98602.16;4993479;28;20207;-83
2023/07/25 03:53:10;;;;;;;11.07;5.20;;;;;;;25.94;57.79;98604.63;4993221;28;20283;-84
2023/07/25 03:55:36;;;;;;;8.77;4.57;;;;;;;25.99;57.60;98612.97;4993216;28;20708;-83
2023/07/25 03:58:01;;;;;;;11.50;5.00;;;;;;;26.01;57.65;98610.09;4993428;28;20203;-83
2023/07/25 04:00:26;;;;;;;13.37;5.03;;;;;;;26.02;57.73;98604.50;4993445;28;20652;-83
2023/07/25 04:02:52;;;;;;;10.50;4.60;;;;;;;26.04;57.47;98605.16;4993375;28;20207;-83
2023/07/25 04:05:17;;;;;;;10.20;5.03;;;;;;;26.06;57.77;98602.28;4992358;28;20271;-83
2023/07/25 04:07:43;;;;;;;12.27;4.20;;;;;;;26.08;57.68;98595.69;4993836;28;20176;-83
2023/07/25 04:10:08;;;;;;;9.53;5.27;;;;;;;26.11;58.13;98595.31;4993117;28;20183;-83
2023/07/25 04:12:34;;;;;;;9.70;4.60;;;;;;;26.15;57.72;98591.22;4978155;28;20539;-83
2023/07/25 04:14:59;;;;;;;9.60;4.70;;;;;;;26.17;58.14;98593.75;4996656;28;20282;-83
2023/07/25 04:17:24;;;;;;;9.03;4.93;;;;;;;26.20;57.45;98594.16;4996525;28;20384;-83
2023/07/25 04:19:50;;;;;;;8.57;4.70;;;;;;;26.16;57.40;98594.75;4996600;28;20625;-84
2023/07/25 04:22:15;;;;;;;8.73;4.87;;;;;;;26.14;56.97;98594.97;4996763;28;20199;-83
2023/07/25 04:24:41;;;;;;;12.20;5.07;;;;;;;26.20;57.20;98596.84;4996761;28;20249;-83
2023/07/25 04:27:06;;;;;;;9.47;4.53;;;;;;;26.21;57.78;98605.75;4996541;28;20175;-83
2023/07/25 04:29:31;;;;;;;9.73;4.80;;;;;;;26.23;57.51;98606.41;4996409;28;20192;-83
2023/07/25 04:31:57;;;;;;;12.07;5.38;;;;;;;26.24;57.62;98595.47;4996288;28;20270;-83
2023/07/25 04:34:22;;;;;;;11.85;4.68;;;;;;;26.33;57.78;98593.47;4979053;28;20210;-83
2023/07/25 04:36:48;;;;;;;15.68;5.47;;;;;;;26.36;57.85;98598.47;4996575;28;20176;-83
2023/07/25 04:39:13;;;;;;;9.80;5.18;;;;;;;26.44;57.72;98590.25;4996829;28;20183;-83
2023/07/25 04:41:39;;;;;;;11.18;4.88;;;;;;;26.57;57.30;98595.72;4979119;28;20176;-83
2023/07/25 04:44:04;;;;;;;9.80;4.43;;;;;;;26.61;57.31;98585.44;4996211;28;20247;-83
2023/07/25 04:46:30;;;;;;;11.97;5.10;;;;;;;26.68;57.44;98588.97;4996086;28;20176;-83
2023/07/25 04:48:56;;;;;;;17.95;5.18;;;;;;;26.80;57.14;98591.00;4978895;28;20260;-83
2023/07/25 04:51:21;;;;;;;9.50;5.47;;;;;;;26.86;57.00;98581.28;4996111;28;20176;-83
2023/07/25 04:53:47;;;;;;;9.57;4.93;;;;;;;26.97;56.78;98586.13;4995996;28;20207;-83
2023/07/25 04:56:12;;;;;;;11.48;5.55;;;;;;;27.07;56.54;98585.78;4995031;28;20189;-83
2023/07/25 04:58:44;;;;;;;10.30;5.05;;;;;;;27.14;56.32;98587.47;4995923;28;20182;-83
2023/07/25 05:01:10;;;;;;;17.70;5.30;;;;;;;27.21;56.31;98582.94;4996201;28;20195;-83
2023/07/25 05:03:35;;;;;;;11.70;5.22;;;;;;;27.27;56.28;98582.16;4978383;28;20224;-83
2023/07/25 05:06:01;;;;;;;12.68;5.20;;;;;;;27.40;56.10;98592.16;4995788;28;20172;-83
2023/07/25 05:08:26;;;;;;;11.30;5.10;;;;;;;27.51;55.69;98588.91;4995748;28;20257;-83
2023/07/25 05:10:53;;;;;;;14.98;5.38;;;;;;;27.62;55.67;98601.78;4995581;28;20190;-83
2023/07/25 05:13:19;;;;;;;18.92;6.10;;;;;;;27.86;55.25;98590.47;4995583;28;20221;-83
2023/07/25 05:15:44;;;;;;;13.30;5.50;;;;;;;28.10;54.75;98597.16;4995630;28;20626;-83
2023/07/25 05:18:10;;;;;;;11.70;5.05;;;;;;;28.44;53.05;98588.91;4978355;28;20184;-83
2023/07/25 05:20:35;;;;;;;12.73;5.47;;;;;;;28.83;52.30;98589.94;4995361;28;20668;-83
2023/07/25 05:23:01;;;;;;;12.07;5.32;;;;;;;29.17;50.63;98590.50;4977749;28;20180;-83
2023/07/25 05:25:26;;;;;;;9.55;5.00;;;;;;;29.25;50.44;98589.47;4995026;28;20180;-83
2023/07/25 05:27:52;;;;;;;16.67;5.70;;;;;;;29.33;50.83;98591.09;4995261;28;20184;-83
2023/07/25 05:30:17;;;;;;;10.88;4.72;;;;;;;29.13;51.06;98594.66;4995616;28;20621;-83
2023/07/25 05:32:43;;;;;;;11.23;5.82;;;;;;;29.44;50.40;98591.25;4995312;28;20521;-83
2023/07/25 05:35:08;;;;;;;13.77;5.35;;;;;;;29.71;49.64;98595.53;4994135;28;20728;-83
2023/07/25 05:37:38;;;;;;;13.23;5.50;;;;;;;29.85;49.71;98598.19;4995210;28;20186;-83
2023/07/25 05:40:04;;;;;;;13.10;4.60;;;;;;;29.92;49.45;98590.84;4995107;28;20756;-83
2023/07/25 05:42:30;;;;;;;16.00;5.68;;;;;;;30.06;48.62;98597.84;4995028;28;20236;-83
2023/07/25 05:44:57;;;;;;;10.82;5.80;;;;;;;30.18;48.76;98594.22;4977773;28;20238;-83
2023/07/25 05:47:22;;;;;;;12.15;5.05;;;;;;;30.30;48.36;98592.47;4995307;28;20614;-84
2023/07/25 05:49:47;;;;;;;11.98;5.63;;;;;;;30.55;47.39;98594.38;4994955;28;20185;-84
2023/07/25 05:52:13;;;;;;;17.08;6.35;;;;;;;30.62;47.51;98581.63;4977754;28;20595;-84
2023/07/25 05:54:39;;;;;;;11.25;5.05;;;;;;;30.62;46.28;98578.91;4977701;28;20196;-84
2023/07/25 05:57:05;;;;;;;14.68;5.85;;;;;;;30.61;46.20;98575.38;4995099;28;20172;-84
2023/07/25 05:59:30;;;;;;;9.50;4.90;;;;;;;30.62;46.92;98577.03;4994813;28;20200;-84
2023/07/25 06:01:56;;;;;;;13.88;6.25;;;;;;;30.67;45.46;98571.78;4995059;28;20212;-84
2023/07/25 06:04:22;;;;;;;10.20;5.50;;;;;;;30.54;45.80;98574.63;4995036;28;20230;-84
2023/07/25 06:06:47;;;;;;;14.52;5.65;;;;;;;30.62;45.47;98571.63;4994666;28;20532;-84
2023/07/25 06:09:12;;;;;;;14.45;6.05;;;;;;;30.70;45.54;98579.47;4977500;28;20543;-84
2023/07/25 06:11:38;;;;;;;12.23;5.93;;;;;;;30.81;46.04;98586.84;4994534;28;20606;-84
2023/07/25 06:14:04;;;;;;;14.13;5.97;;;;;;;30.64;44.87;98585.75;4994300;28;20195;-84
2023/07/25 06:16:29;;;;;;;7.97;5.25;;;;;;;30.85;44.46;98593.47;4993509;28;20183;-84
2023/07/25 06:18:55;;;;;;;9.60;5.18;;;;;;;30.98;44.42;98587.97;4993499;28;20221;-84
2023/07/25 06:21:20;;;;;;;13.18;5.65;;;;;;;30.92;44.43;98583.44;4994275;28;20184;-84
2023/07/25 06:23:46;;;;;;;11.60;6.25;;;;;;;30.90;44.04;98574.69;4993437;28;20628;-84
2023/07/25 06:26:11;;;;;;;15.00;5.28;;;;;;;31.04;43.68;98575.41;4994498;28;20186;-84
2023/07/25 06:28:37;;;;;;;13.27;4.93;;;;;;;31.30;43.66;98580.53;4994145;28;20184;-84
2023/07/25 06:31:02;;;;;;;12.00;6.10;;;;;;;31.54;43.27;98579.63;4994756;28;20247;-84
2023/07/25 06:33:28;;;;;;;15.65;6.55;;;;;;;31.82;42.20;98572.78;4994047;28;20196;-84
2023/07/25 06:35:53;;;;;;;10.27;4.97;;;;;;;32.01;42.12;98577.13;4993956;28;20175;-85
2023/07/25 06:38:19;;;;;;;15.50;6.20;;;;;;;32.07;41.44;98574.34;4994416;28;20183;-84
2023/07/25 06:40:44;;;;;;;12.90;5.47;;;;;;;32.05;40.16;98565.59;4994672;28;20182;-84
2023/07/25 06:43:10;;;;;;;11.23;5.70;;;;;;;32.46;38.35;98566.63;4994073;28;20263;-85
2023/07/25 06:45:35;;;;;;;14.68;5.75;;;;;;;32.56;39.33;98564.19;4993950;28;20621;-85
2023/07/25 06:48:01;;;;;;;16.33;6.82;;;;;;;32.93;39.28;98554.75;4994017;28;20255;-85
2023/07/25 06:50:26;;;;;;;12.98;5.85;;;;;;;33.21;40.36;98551.28;4994755;28;20183;-85
2023/07/25 06:52:51;;;;;;;13.88;6.78;;;;;;;33.52;39.47;98552.75;4993914;28;20171;-85
2023/07/25 06:55:19;;;;;;;15.07;5.53;;;;;;;33.80;37.95;98548.19;4994405;28;20203;-85
2023/07/25 06:57:45;;;;;;;15.23;6.40;;;;;;;34.07;38.40;98544.88;4994197;28;20203;-85
2023/07/25 07:00:11;;;;;;;14.13;7.80;;;;;;;34.36;36.67;98543.72;4993869;28;20670;-85
2023/07/25 07:02:36;;;;;;;13.57;6.20;;;;;;;34.63;37.83;98531.13;4994397;28;20303;-85
2023/07/25 07:05:02;;;;;;;15.85;6.40;;;;;;;34.86;38.34;98532.81;4993637;28;20230;-86
2023/07/25 07:07:27;;;;;;;14.93;6.05;;;;;;;35.06;36.93;98527.69;4993783;28;20218;-86
2023/07/25 07:09:53;;;;;;;14.63;5.72;;;;;;;35.31;36.58;98524.44;4976976;28;20264;-86
2023/07/25 07:12:18;;;;;;;15.70;5.25;;;;;;;35.48;35.70;98517.84;4993783;28;20539;-86
2023/07/25 07:14:44;;;;;;;11.40;5.85;;;;;;;35.65;36.12;98517.78;4976542;28;20577;-86
2023/07/25 07:17:09;;;;;;;13.00;6.18;;;;;;;35.73;35.79;98515.44;4992888;28;20184;-86
2023/07/25 07:19:34;;;;;;;11.85;6.55;;;;;;;35.97;36.66;98506.91;4977693;28;20176;-86
2023/07/25 07:22:00;;;;;;;13.10;6.35;;;;;;;36.03;33.91;98505.91;4976532;28;20274;-86
2023/07/25 07:24:25;;;;;;;11.57;6.22;;;;;;;36.08;34.07;98509.53;4976579;28;20187;-86
2023/07/25 07:26:51;;;;;;;12.07;6.40;;;;;;;36.42;34.06;98501.88;4976829;28;20188;-86
2023/07/25 07:29:16;;;;;;;13.30;6.68;;;;;;;36.59;34.20;98493.53;4993659;28;20190;-86
2023/07/25 07:31:42;;;;;;;12.27;6.30;;;;;;;36.71;33.85;98499.63;4993840;28;20342;-86
2023/07/25 07:34:16;;;;;;;12.00;6.05;;;;;;;36.85;32.69;98498.06;4993525;28;20730;-86
2023/07/25 07:36:42;;;;;;;17.77;6.43;;;;;;;37.05;33.38;98495.47;4993496;28;20267;-86
2023/07/25 07:39:07;;;;;;;10.85;6.22;;;;;;;37.13;33.88;98505.06;4976733;28;20171;-87
2023/07/25 07:41:34;;;;;;;11.82;6.00;;;;;;;37.31;32.61;98504.59;4976470;28;20179;-86
2023/07/25 07:44:00;;;;;;;14.15;6.85;;;;;;;37.39;30.88;98515.84;4993516;28;20184;-86
2023/07/25 07:46:30;;;;;;;14.30;6.82;;;;;;;37.64;31.54;98509.63;4993859;28;20271;-86
2023/07/25 07:49:00;;;;;;;11.73;6.50;;;;;;;37.51;31.23;98508.25;4997281;28;20198;-86
2023/07/25 07:51:27;;;;;;;11.73;6.35;;;;;;;37.69;31.99;98495.97;4996194;28;20270;-87
2023/07/25 07:53:54;;;;;;;13.88;6.47;;;;;;;37.92;30.80;98502.88;4963647;28;20204;-87
2023/07/25 07:56:20;;;;;;;12.52;6.43;;;;;;;38.07;31.92;98495.50;4997181;28;20178;-87
2023/07/25 07:58:47;;;;;;;10.32;5.63;;;;;;;38.12;30.56;98484.56;4997027;28;20321;-86
2023/07/25 08:01:19;;;;;;;10.77;5.97;;;;;;;37.94;29.99;98482.38;4996999;28;20183;-86
2023/07/25 08:03:47;;;;;;;11.20;5.90;;;;;;;37.76;31.06;98476.56;4996024;28;20160;-87
2023/07/25 08:06:14;;;;;;;11.13;6.10;;;;;;;37.61;30.12;98479.28;4995840;28;20172;-87
2023/07/25 08:08:41;;;;;;;11.63;6.15;;;;;;;37.90;30.62;98462.09;4979450;28;20172;-87
2023/07/25 08:11:08;;;;;;;11.23;6.45;;;;;;;38.15;31.67;98450.34;4997075;28;20175;-87
2023/07/25 08:13:35;;;;;;;10.63;6.40;;;;;;;38.30;30.24;98444.00;4996888;28;20261;-87
2023/07/25 08:16:02;;;;;;;11.85;5.82;;;;;;;38.68;30.67;98446.16;4979470;28;20180;-87
2023/07/25 08:18:29;;;;;;;12.55;6.20;;;;;;;38.84;30.07;98441.47;4979504;28;20234;-87
2023/07/25 08:20:59;;;;;;;12.20;6.75;;;;;;;38.63;28.64;98444.25;4979450;28;20195;-87
2023/07/25 08:23:26;;;;;;;9.93;5.88;;;;;;;38.77;29.97;98433.53;4995450;28;20187;-87
2023/07/25 08:25:57;;;;;;;12.60;5.72;;;;;;;38.84;31.46;98434.06;4979313;28;20533;-87
2023/07/25 08:28:24;;;;;;;15.10;6.10;;;;;;;39.03;30.41;98432.34;4976167;28;20227;-87
2023/07/25 08:31:01;;;;;;;13.88;7.13;;;;;;;39.16;30.44;98431.72;4975971;28;20184;-87
2023/07/25 08:33:31;;;;;;;14.43;6.00;;;;;;;39.25;30.24;98432.81;4975926;28;20204;-87
2023/07/25 08:35:59;;;;;;;11.15;5.80;;;;;;;39.34;31.44;98422.06;4976861;28;20161;-87
2023/07/25 08:38:25;;;;;;;8.85;5.15;;;;;;;38.74;30.13;98423.09;4976078;28;20184;-87
2023/07/25 08:41:22;;;;;;;10.45;5.70;;;;;;;39.24;30.72;98422.94;4975684;28;20196;-87
2023/07/25 08:43:51;;;;;;;15.05;5.78;;;;;;;38.50;30.44;98411.94;4992792;28;20650;-87
2023/07/25 08:46:20;;;;;;;12.35;5.80;;;;;;;38.84;30.86;98412.13;4967399;28;20192;-87
2023/07/25 08:48:47;;;;;;;10.25;5.60;;;;;;;39.23;30.98;98409.53;4963442;28;20184;-87
2023/07/25 08:51:22;;;;;;;11.18;5.68;;;;;;;39.42;29.80;98415.97;4975933;28;20188;-87
2023/07/25 08:54:04;;;;;;;12.20;5.75;;;;;;;38.74;29.76;98414.88;4966198;28;20210;-87
2023/07/25 08:56:31;;;;;;;12.88;5.93;;;;;;;38.88;30.88;98426.94;4955916;29;20248;-87
2023/07/25 08:58:59;;;;;;;10.43;5.97;;;;;;;39.19;30.19;98419.41;4954444;28;20196;-87
2023/07/25 09:01:27;;;;;;;10.95;5.47;;;;;;;38.88;30.14;98418.72;4954308;28;20197;-87
2023/07/25 09:03:53;;;;;;;9.05;5.70;;;;;;;39.15;29.92;98424.59;4940042;29;20193;-87
2023/07/25 09:06:19;;;;;;;9.70;5.15;;;;;;;39.45;27.12;98415.41;4938934;29;20184;-87
2023/07/25 09:08:44;;;;;;;9.65;5.10;;;;;;;39.64;27.89;98418.31;4957080;28;20177;-87
2023/07/25 09:11:10;;;;;;;8.45;5.20;;;;;;;39.98;27.59;98416.41;4973048;28;20670;-87
2023/07/25 09:13:37;;;;;;;8.57;4.93;;;;;;;40.06;26.88;98410.31;4973912;28;20219;-88
2023/07/25 09:16:04;;;;;;;9.50;4.72;;;;;;;39.76;26.66;98402.31;4973005;28;20497;-87
2023/07/25 09:18:29;;;;;;;8.93;4.75;;;;;;;40.31;26.04;98407.31;4973425;28;20180;-87
2023/07/25 09:20:55;;;;;;;13.50;5.45;;;;;;;40.40;26.81;98402.00;4975459;28;20185;-88
2023/07/25 09:23:21;;;;;;;11.10;5.22;;;;;;;40.45;26.70;98402.78;4975730;28;20180;-87
2023/07/25 09:25:48;;;;;;;10.68;5.30;;;;;;;40.62;25.78;98396.03;4975767;28;20176;-88
2023/07/25 09:28:13;;;;;;;9.80;5.22;;;;;;;40.63;26.62;98392.97;4958375;28;20196;-87
2023/07/25 09:30:46;;;;;;;10.50;5.82;;;;;;;40.87;26.66;98390.22;4975779;28;20172;-87
2023/07/25 09:33:25;;;;;;;8.85;5.13;;;;;;;40.91;27.25;98385.81;4975635;28;20591;-88
2023/07/25 09:35:50;;;;;;;9.80;5.07;;;;;;;40.35;26.63;98380.91;4958867;28;20227;-88
2023/07/25 09:38:16;;;;;;;11.30;5.35;;;;;;;40.40;27.30;98375.34;4974529;28;20634;-87
2023/07/25 09:40:45;;;;;;;8.00;5.10;;;;;;;40.63;27.79;98376.50;4967658;28;20588;-88
2023/07/25 09:43:23;;;;;;;11.77;4.68;;;;;;;40.22;27.61;98384.34;4975448;28;20235;-88
2023/07/25 09:56:57;;;;;;;11.07;5.45;;;;;;;40.09;29.33;98348.50;6047355;22;21019;-89
2023/07/25 09:59:22;;;;;;;11.65;4.85;;;;;;;39.92;29.79;98351.66;5031369;28;20276;-89
2023/07/25 10:01:50;;;;;;;8.85;4.50;;;;;;;40.03;29.54;98342.22;5033551;28;20178;-89
2023/07/25 10:04:20;;;;;;;7.88;4.65;;;;;;;40.20;29.63;98342.59;5033258;28;20181;-88
2023/07/25 10:06:47;;;;;;;8.93;4.80;;;;;;;40.67;30.02;98332.75;5016134;28;20194;-89
2023/07/25 10:09:12;;;;;;;7.90;4.10;;;;;;;40.95;29.01;98337.34;5016401;28;20240;-91
2023/07/25 10:11:40;;;;;;;15.10;5.28;;;;;;;41.02;28.62;98333.09;5032548;28;20182;-88
2023/07/25 10:14:07;;;;;;;9.20;3.90;;;;;;;41.37;28.90;98319.97;5042564;28;20270;-89
2023/07/25 10:16:33;;;;;;;7.68;4.00;;;;;;;40.91;29.11;98328.06;5052970;28;20192;-89
2023/07/25 10:18:59;;;;;;;8.00;3.72;;;;;;;40.48;29.68;98330.78;5053963;28;20261;-87
2023/07/25 10:21:46;;;;;;;9.35;4.05;;;;;;;40.62;28.64;98324.59;5053657;28;20693;-89
2023/07/25 10:24:12;;;;;;;9.98;4.07;;;;;;;41.17;29.01;98309.25;5052691;28;20571;-89
2023/07/25 10:26:57;;;;;;;8.45;4.82;;;;;;;41.58;28.12;98319.34;5052934;28;20185;-90
2023/07/25 10:29:35;;;;;;;7.38;4.32;;;;;;;41.86;28.60;98314.72;5053662;28;20560;-89
2023/07/25 10:32:02;;;;;;;6.88;3.85;;;;;;;41.98;27.77;98306.00;5052850;28;20182;-89
2023/07/25 10:34:44;;;;;;;7.78;4.43;;;;;;;42.24;27.06;98304.41;5053444;28;20689;-88
2023/07/25 10:37:20;;;;;;;8.75;4.85;;;;;;;42.30;27.26;98299.59;5036756;28;20192;-89
2023/07/25 10:39:45;;;;;;;11.93;4.03;;;;;;;42.48;27.23;98302.22;5052678;28;20192;-88
2023/07/25 10:42:17;;;;;;;8.20;4.30;;;;;;;42.32;26.84;98295.44;5052388;28;20173;-88
2023/07/25 10:44:42;;;;;;;7.65;4.28;;;;;;;42.19;26.74;98286.00;5053874;28;20183;-90
2023/07/25 10:47:42;;;;;;;7.18;4.93;;;;;;;42.56;27.32;98285.00;5053599;28;20256;-89
2023/07/25 10:50:08;;;;;;;9.52;4.65;;;;;;;41.96;27.18;98267.72;5035756;28;20211;-88
2023/07/25 10:52:44;;;;;;;7.25;4.50;;;;;;;42.21;26.25;98272.78;5035939;28;20205;-89
2023/07/25 10:55:11;;;;;;;10.43;4.55;;;;;;;41.65;27.76;98266.63;5053394;28;20201;-89
2023/07/25 10:57:36;;;;;;;6.47;3.70;;;;;;;42.28;27.10;98272.34;5052391;28;20227;-89
2023/07/25 11:00:04;;;;;;;8.50;4.28;;;;;;;42.75;26.54;98260.06;5053426;28;20181;-87
2023/07/25 11:02:35;;;;;;;8.32;4.22;;;;;;;42.78;26.41;98251.97;5052451;28;20188;-88
2023/07/25 11:05:12;;;;;;;7.78;3.80;;;;;;;42.57;26.67;98234.28;5053012;28;20311;-87
2023/07/25 11:07:47;;;;;;;9.38;3.95;;;;;;;41.95;26.90;98240.50;5052121;28;20188;-89
2023/07/25 11:10:22;;;;;;;12.88;3.92;;;;;;;41.96;26.47;98231.09;5052082;28;20180;-89
2023/07/25 11:12:58;;;;;;;5.55;3.60;;;;;;;42.16;26.50;98236.25;5053054;28;20684;-89
2023/07/25 11:15:24;;;;;;;7.80;3.95;;;;;;;41.82;27.07;98224.78;5053259;28;20204;-89
2023/07/25 11:17:50;;;;;;;8.05;3.72;;;;;;;42.27;27.88;98221.16;5052985;28;20294;-90
2023/07/25 11:20:19;;;;;;;10.05;4.22;;;;;;;42.57;25.90;98214.97;5053275;28;20619;-90
2023/07/25 11:22:48;;;;;;;9.25;4.18;;;;;;;42.41;27.38;98221.09;5054644;28;20185;-90
2023/07/25 11:25:14;;;;;;;7.90;3.67;;;;;;;42.78;25.42;98210.63;5057448;28;20169;-90
2023/07/25 11:27:41;;;;;;;8.40;3.78;;;;;;;43.10;25.14;98226.16;5056987;28;20173;-89
2023/07/25 11:30:11;;;;;;;8.57;3.95;;;;;;;43.36;25.62;98209.78;5057232;28;20530;-89
2023/07/25 11:32:37;;;;;;;13.27;3.42;;;;;;;43.17;25.86;98206.38;5039547;28;20310;-89
2023/07/25 11:35:06;;;;;;;9.73;3.80;;;;;;;43.70;25.58;98201.69;5056738;28;20203;-89
2023/07/25 11:37:32;;;;;;;8.30;3.78;;;;;;;43.96;24.97;98196.28;5057095;28;20173;-89